Time;durP1;ratioP1;P1;durP2;ratioP2;P2;SDS_P1;SDS_P2;PMS_P1;PMS_P2;Temp;Humidity;BMP_temperature;BMP_pressure;BME280_temperature;BME280_humidity;BME280_pressure;Samples;Min_cycle;Max_cycle;Signal;HPM_P1;HPM_P2
2023/03/22 00:02:16;;;;;;;;;;;;;;;8.06;63.43;101064.64;107731;1254;111310;-59
2023/03/22 00:04:44;;;;;;;;;;;;;;;7.99;63.35;101066.20;107681;1255;110125;-60
2023/03/22 00:07:12;;;;;;;;;;;;;;;7.93;63.72;101068.80;107696;1252;107865;-61
2023/03/22 00:09:41;;;;;;;;;;;;;;;7.91;63.77;101067.73;107689;1253;97876;-63
2023/03/22 00:12:09;;;;;;;;;;;;;;;7.86;63.61;101066.99;107721;1254;97905;-61
2023/03/22 00:14:38;;;;;;;;;;;;;;;7.81;63.96;101067.50;107742;1252;110793;-63
2023/03/22 00:17:06;;;;;;;;;;;;;;;7.79;63.76;101068.39;107660;1254;109717;-63
2023/03/22 00:19:34;;;;;;;;;;;;;;;7.76;63.67;101068.98;107636;1253;108498;-61
2023/03/22 00:22:05;;;;;;;;;;;;;;;7.73;63.45;101069.73;107676;1253;97804;-62
2023/03/22 00:24:33;;;;;;;;;;;;;;;7.66;63.62;101072.73;107662;1253;97799;-62
2023/03/22 00:27:01;;;;;;;;;;;;;;;7.57;63.46;101074.42;107479;1259;111418;-61
2023/03/22 00:29:30;;;;;;;;;;;;;;;7.52;63.43;101073.89;107711;1254;109005;-60
2023/03/22 00:31:58;;;;;;;;;;;;;;;7.46;63.60;101071.28;107693;1253;108719;-62
2023/03/22 00:34:30;;;;;;;;;;;;;;;7.41;63.94;101070.16;107668;1253;97957;-61
2023/03/22 00:36:58;;;;;;;;;;;;;;;7.38;64.16;101067.73;107710;1254;97664;-63
2023/03/22 00:39:26;;;;;;;;;;;;;;;7.37;64.24;101066.90;107665;1252;111546;-61
2023/03/22 00:41:55;;;;;;;;;;;;;;;7.37;64.40;101064.77;107671;1254;109910;-61
2023/03/22 00:44:23;;;;;;;;;;;;;;;7.36;64.34;101067.48;107687;1254;107885;-62
2023/03/22 00:46:52;;;;;;;;;;;;;;;7.34;64.47;101066.71;107699;1252;97863;-60
2023/03/22 00:49:21;;;;;;;;;;;;;;;7.35;64.58;101068.45;107683;1253;97707;-62
2023/03/22 00:51:49;;;;;;;;;;;;;;;7.37;64.41;101067.98;107676;1254;111250;-61
2023/03/22 00:54:18;;;;;;;;;;;;;;;7.37;64.63;101064.91;107522;1254;110078;-61
2023/03/22 00:56:48;;;;;;;;;;;;;;;7.36;64.71;101069.96;107633;1253;108199;-60
2023/03/22 00:59:17;;;;;;;;;;;;;;;7.39;65.14;101066.79;107613;1253;97948;-61
2023/03/22 01:01:46;;;;;;;;;;;;;;;7.45;65.59;101070.60;107482;1253;99179;-60
2023/03/22 01:04:16;;;;;;;;;;;;;;;7.47;65.42;101072.79;107632;1254;111855;-61
2023/03/22 01:06:46;;;;;;;;;;;;;;;7.45;65.16;101070.44;107644;1253;109923;-61
2023/03/22 01:09:14;;;;;;;;;;;;;;;7.44;64.99;101070.35;107658;1253;108704;-61
2023/03/22 01:11:44;;;;;;;;;;;;;;;7.42;64.55;101066.02;107685;1252;97829;-61
2023/03/22 01:14:13;;;;;;;;;;;;;;;7.36;64.63;101070.70;107522;1254;97711;-60
2023/03/22 01:16:41;;;;;;;;;;;;;;;7.31;64.81;101066.77;107635;1252;112011;-62
2023/03/22 01:19:10;;;;;;;;;;;;;;;7.30;64.87;101062.95;107636;1252;110988;-61
2023/03/22 01:21:39;;;;;;;;;;;;;;;7.29;64.66;101062.28;107609;1253;108171;-61
2023/03/22 01:24:07;;;;;;;;;;;;;;;7.27;64.97;101067.75;107658;1253;98587;-60
2023/03/22 01:26:36;;;;;;;;;;;;;;;7.28;65.64;101066.41;107713;1253;97737;-61
2023/03/22 01:29:04;;;;;;;;;;;;;;;7.28;65.38;101066.61;107641;1253;112977;-61
2023/03/22 01:31:33;;;;;;;;;;;;;;;7.26;65.07;101068.75;107679;1254;109823;-61
2023/03/22 01:34:02;;;;;;;;;;;;;;;7.23;65.18;101062.85;107641;1253;107790;-60
2023/03/22 01:36:30;;;;;;;;;;;;;;;7.21;64.90;101066.96;107517;1252;97979;-60
2023/03/22 01:38:59;;;;;;;;;;;;;;;7.16;64.78;101067.30;107487;1253;97845;-61
2023/03/22 01:41:28;;;;;;;;;;;;;;;7.11;64.79;101070.66;107668;1253;111049;-60
2023/03/22 01:44:09;;;;;;;;;;;;;;;7.06;64.71;101066.90;107662;1253;109153;-60
2023/03/22 01:46:41;;;;;;;;;;;;;;;7.02;64.63;101067.17;107669;1256;107175;-61
2023/03/22 01:49:15;;;;;;;;;;;;;;;6.98;64.72;101065.67;107639;1254;97700;-60
2023/03/22 01:51:45;;;;;;;;;;;;;;;6.95;64.60;101064.23;107676;1251;97713;-62
2023/03/22 01:54:28;;;;;;;;;;;;;;;6.92;64.97;101064.66;107678;1251;111808;-62
2023/03/22 01:57:01;;;;;;;;;;;;;;;6.88;65.26;101064.38;107683;1254;109678;-61
2023/03/22 01:59:36;;;;;;;;;;;;;;;6.83;65.32;101065.80;107662;1253;108480;-62
2023/03/22 02:02:23;;;;;;;;;;;;;;;6.80;65.45;101070.14;107547;1253;97864;-60
2023/03/22 02:05:00;;;;;;;;;;;;;;;6.79;65.33;101068.38;107561;1252;97693;-61
2023/03/22 02:07:30;;;;;;;;;;;;;;;6.78;65.34;101066.98;107667;1253;111859;-61
2023/03/22 02:09:59;;;;;;;;;;;;;;;6.77;65.22;101065.29;107487;1253;109484;-60
2023/03/22 02:12:44;;;;;;;;;;;;;;;6.73;64.99;101066.63;107644;1254;108182;-61
2023/03/22 02:15:26;;;;;;;;;;;;;;;6.69;64.93;101066.39;107576;1252;97729;-61
2023/03/22 02:18:15;;;;;;;;;;;;;;;6.65;64.91;101063.61;107617;1253;97857;-60
2023/03/22 02:21:03;;;;;;;;;;;;;;;6.61;65.30;101067.46;107677;1252;111921;-61
2023/03/22 02:23:50;;;;;;;;;;;;;;;6.57;65.45;101064.67;107662;1254;110094;-62
2023/03/22 02:26:19;;;;;;;;;;;;;;;6.53;65.74;101072.95;107625;1254;108329;-62
2023/03/22 02:28:55;;;;;;;;;;;;;;;6.50;65.67;101077.77;107523;1254;97701;-60
2023/03/22 02:31:33;;;;;;;;;;;;;;;6.48;65.53;101080.77;107660;1253;98270;-62
2023/03/22 02:34:08;;;;;;;;;;;;;;;6.46;65.68;101080.20;107644;1255;111798;-60
2023/03/22 02:37:00;;;;;;;;;;;;;;;6.40;65.55;101085.55;107531;1254;109758;-60
2023/03/22 02:39:41;;;;;;;;;;;;;;;6.36;65.61;101081.23;107645;1253;107351;-61
2023/03/22 02:42:28;;;;;;;;;;;;;;;6.33;65.62;101082.52;107508;1252;97814;-60
2023/03/22 02:45:29;;;;;;;;;;;;;;;6.29;65.44;101087.02;107534;1252;97706;-60
2023/03/22 02:48:00;;;;;;;;;;;;;;;6.26;65.74;101090.04;107285;1256;111385;-60
2023/03/22 02:50:49;;;;;;;;;;;;;;;6.24;65.63;101093.03;107621;1254;110850;-59
2023/03/22 02:53:23;;;;;;;;;;;;;;;6.22;65.55;101095.27;107632;1256;108154;-61
2023/03/22 02:56:00;;;;;;;;;;;;;;;6.21;65.66;101099.11;107685;1252;97832;-61
2023/03/22 02:58:30;;;;;;;;;;;;;;;6.15;65.74;101101.79;107667;1255;97697;-62
2023/03/22 03:01:04;;;;;;;;;;;;;;;6.11;65.73;101100.79;107667;1254;111309;-61
2023/03/22 03:03:36;;;;;;;;;;;;;;;6.09;65.78;101097.90;107664;1253;108990;-61
2023/03/22 03:06:09;;;;;;;;;;;;;;;6.06;65.46;101099.36;107613;1256;108336;-61
2023/03/22 03:08:39;;;;;;;;;;;;;;;6.01;65.67;101098.09;107642;1252;97951;-62
2023/03/22 03:11:08;;;;;;;;;;;;;;;5.95;65.74;101103.90;107722;1253;97825;-62
2023/03/22 03:13:37;;;;;;;;;;;;;;;5.90;65.55;101103.20;107636;1253;112871;-60
2023/03/22 03:16:06;;;;;;;;;;;;;;;5.83;65.59;101105.92;107643;1254;108764;-60
2023/03/22 03:18:37;;;;;;;;;;;;;;;5.77;66.00;101104.84;107630;1254;107076;-62
2023/03/22 03:21:28;;;;;;;;;;;;;;;5.74;65.96;101104.71;107535;1254;97835;-61
2023/03/22 03:24:06;;;;;;;;;;;;;;;5.70;65.85;101101.38;107646;1253;97797;-60
2023/03/22 03:26:54;;;;;;;;;;;;;;;5.67;66.02;101106.08;107620;1254;111869;-60
2023/03/22 03:29:22;;;;;;;;;;;;;;;5.61;66.42;101110.49;107513;1254;110089;-60
2023/03/22 03:32:03;;;;;;;;;;;;;;;5.59;66.45;101108.33;107496;1253;107697;-61
2023/03/22 03:34:38;;;;;;;;;;;;;;;5.56;66.18;101111.37;107617;1253;97838;-61
2023/03/22 03:37:08;;;;;;;;;;;;;;;5.54;66.42;101115.59;107650;1254;97797;-61
2023/03/22 03:39:43;;;;;;;;;;;;;;;5.52;66.55;101113.89;107629;1254;112653;-62
2023/03/22 03:42:15;;;;;;;;;;;;;;;5.52;66.71;101115.89;107525;1254;109038;-62
2023/03/22 03:44:44;;;;;;;;;;;;;;;5.51;66.73;101118.96;107571;1254;109133;-60
2023/03/22 03:47:13;;;;;;;;;;;;;;;5.50;66.93;101121.67;107618;1253;97879;-61
2023/03/22 03:49:41;;;;;;;;;;;;;;;5.49;66.99;101124.23;107625;1255;97898;-61
2023/03/22 03:52:09;;;;;;;;;;;;;;;5.45;67.00;101123.04;107683;1253;111131;-60
2023/03/22 03:54:38;;;;;;;;;;;;;;;5.44;67.05;101128.23;107694;1254;109632;-60
2023/03/22 03:57:08;;;;;;;;;;;;;;;5.46;67.02;101132.60;107634;1251;108042;-60
2023/03/22 03:59:37;;;;;;;;;;;;;;;5.43;66.98;101133.30;107540;1254;97823;-61
2023/03/22 04:02:12;;;;;;;;;;;;;;;5.39;66.84;101133.53;107651;1251;97877;-61
2023/03/22 04:04:41;;;;;;;;;;;;;;;5.39;66.96;101130.92;107654;1251;112260;-60
2023/03/22 04:07:09;;;;;;;;;;;;;;;5.39;66.97;101135.86;107667;1251;109255;-62
2023/03/22 04:09:40;;;;;;;;;;;;;;;5.41;67.11;101133.09;107648;1253;108220;-61
2023/03/22 04:12:21;;;;;;;;;;;;;;;5.40;67.06;101134.39;107615;1253;97896;-61
2023/03/22 04:15:09;;;;;;;;;;;;;;;5.39;66.91;101136.39;107669;1256;97726;-61
2023/03/22 04:17:39;;;;;;;;;;;;;;;5.38;66.91;101136.08;107521;1253;112217;-61
2023/03/22 04:20:09;;;;;;;;;;;;;;;5.38;67.17;101138.44;107657;1253;110811;-61
2023/03/22 04:22:39;;;;;;;;;;;;;;;5.39;67.42;101138.34;107644;1252;107318;-61
2023/03/22 04:25:12;;;;;;;;;;;;;;;5.37;66.95;101142.94;107615;1254;97835;-59
2023/03/22 04:27:49;;;;;;;;;;;;;;;5.34;67.13;101148.77;107713;1251;97804;-61
2023/03/22 04:30:20;;;;;;;;;;;;;;;5.33;67.13;101151.30;107738;1254;112069;-61
2023/03/22 04:33:05;;;;;;;;;;;;;;;5.33;67.16;101157.36;107665;1254;110535;-60
2023/03/22 04:35:57;;;;;;;;;;;;;;;5.31;67.12;101162.48;107640;1253;108455;-60
2023/03/22 04:38:32;;;;;;;;;;;;;;;5.31;67.03;101165.88;107673;1254;97781;-60
2023/03/22 04:41:01;;;;;;;;;;;;;;;5.28;67.16;101166.38;107681;1255;97851;-61
2023/03/22 04:43:38;;;;;;;;;;;;;;;5.28;67.06;101172.27;107690;1254;111802;-62
2023/03/22 04:46:12;;;;;;;;;;;;;;;5.28;67.56;101171.35;107652;1251;109898;-63
2023/03/22 04:48:50;;;;;;;;;;;;;;;5.29;67.43;101170.29;107666;1253;107745;-62
2023/03/22 04:51:18;;;;;;;;;;;;;;;5.26;67.43;101171.84;107606;1254;97924;-61
2023/03/22 04:53:59;;;;;;;;;;;;;;;5.26;67.22;101174.34;107652;1256;97845;-61
2023/03/22 04:56:27;;;;;;;;;;;;;;;5.27;67.57;101173.04;107646;1254;112412;-61
2023/03/22 04:58:56;;;;;;;;;;;;;;;5.27;67.44;101172.46;107659;1253;109777;-60
2023/03/22 05:01:24;;;;;;;;;;;;;;;5.27;67.67;101171.98;107638;1253;108418;-61
2023/03/22 05:03:59;;;;;;;;;;;;;;;5.27;67.68;101171.45;107641;1253;97813;-61
2023/03/22 05:06:27;;;;;;;;;;;;;;;5.27;67.66;101169.68;107691;1256;97918;-60
2023/03/22 05:09:01;;;;;;;;;;;;;;;5.27;67.66;101173.39;107630;1253;112015;-62
2023/03/22 05:11:31;;;;;;;;;;;;;;;5.28;67.91;101180.27;107567;1253;107934;-61
2023/03/22 05:14:20;;;;;;;;;;;;;;;5.31;67.82;101183.27;107507;1254;108299;-62
2023/03/22 05:16:48;;;;;;;;;;;;;;;5.34;67.62;101187.94;107554;1254;97801;-60
2023/03/22 05:19:21;;;;;;;;;;;;;;;5.37;67.93;101193.25;107650;1254;97901;-62
2023/03/22 05:21:56;;;;;;;;;;;;;;;5.42;67.92;101198.27;107696;1252;111830;-61
2023/03/22 05:24:40;;;;;;;;;;;;;;;5.48;68.38;101203.05;107559;1255;111520;-60
2023/03/22 05:27:13;;;;;;;;;;;;;;;5.54;68.43;101204.86;107520;1254;108408;-60
2023/03/22 05:29:43;;;;;;;;;;;;;;;5.60;68.23;101208.02;107661;1254;97775;-61
2023/03/22 05:32:24;;;;;;;;;;;;;;;5.68;68.40;101210.10;107679;1254;97710;-61
2023/03/22 05:34:55;;;;;;;;;;;;;;;5.74;68.32;101212.92;107654;1253;111941;-60
2023/03/22 05:37:33;;;;;;;;;;;;;;;5.83;68.41;101213.77;107567;1254;109059;-61
2023/03/22 05:40:04;;;;;;;;;;;;;;;5.91;68.67;101215.79;107644;1252;109163;-61
2023/03/22 05:42:36;;;;;;;;;;;;;;;6.01;68.76;101218.06;107689;1251;97886;-61
2023/03/22 05:45:13;;;;;;;;;;;;;;;6.13;68.53;101215.02;107578;1254;97928;-61
2023/03/22 05:47:43;;;;;;;;;;;;;;;6.24;68.85;101216.31;107569;1254;111220;-61
2023/03/22 05:50:15;;;;;;;;;;;;;;;6.34;68.94;101218.66;107641;1254;109699;-61
2023/03/22 05:52:44;;;;;;;;;;;;;;;6.47;68.70;101221.42;107637;1253;108611;-60
2023/03/22 05:55:29;;;;;;;;;;;;;;;6.62;68.93;101219.05;107624;1254;97890;-61
2023/03/22 05:58:00;;;;;;;;;;;;;;;6.74;69.52;101222.57;107681;1253;97812;-61
2023/03/22 06:00:30;;;;;;;;;;;;;;;6.86;70.74;101227.67;107578;1254;111899;-60
2023/03/22 06:03:19;;;;;;;;;;;;;;;6.97;70.55;101221.21;107410;1254;109427;-60
2023/03/22 06:06:09;;;;;;;;;;;;;;;7.13;70.78;101226.95;107469;1254;108234;-61
2023/03/22 06:08:45;;;;;;;;;;;;;;;7.27;70.60;101225.63;107633;1254;98466;-60
2023/03/22 06:11:14;;;;;;;;;;;;;;;7.42;70.68;101228.03;107697;1253;97679;-61
2023/03/22 06:13:42;;;;;;;;;;;;;;;7.48;71.93;101231.70;107648;1256;112324;-59
2023/03/22 06:16:11;;;;;;;;;;;;;;;7.55;71.64;101230.40;107665;1253;110101;-60
2023/03/22 06:18:41;;;;;;;;;;;;;;;7.63;71.59;101230.39;107655;1253;107722;-61
2023/03/22 06:21:12;;;;;;;;;;;;;;;7.71;72.15;101232.66;107436;1253;98001;-61
2023/03/22 06:23:42;;;;;;;;;;;;;;;7.76;72.42;101231.05;107661;1254;97707;-61
2023/03/22 06:26:11;;;;;;;;;;;;;;;7.74;72.39;101235.66;107660;1254;112207;-60
2023/03/22 06:28:40;;;;;;;;;;;;;;;7.78;72.32;101237.73;107660;1254;109730;-61
2023/03/22 06:31:09;;;;;;;;;;;;;;;7.81;72.57;101241.10;107587;1252;109081;-60
2023/03/22 06:34:04;;;;;;;;;;;;;;;7.88;72.78;101245.58;107577;1254;97811;-59
2023/03/22 06:36:37;;;;;;;;;;;;;;;7.96;72.84;101247.53;107584;1254;97919;-63
2023/03/22 06:39:11;;;;;;;;;;;;;;;8.02;72.55;101253.79;107635;1253;111213;-62
2023/03/22 06:41:43;;;;;;;;;;;;;;;8.06;72.20;101251.86;107638;1254;109752;-61
2023/03/22 06:44:12;;;;;;;;;;;;;;;8.17;72.11;101253.77;107613;1252;108577;-64
2023/03/22 06:46:58;;;;;;;;;;;;;;;8.34;72.03;101252.75;107624;1253;97805;-62
2023/03/22 06:49:47;;;;;;;;;;;;;;;8.48;71.74;101256.05;107685;1253;97816;-60
2023/03/22 06:52:20;;;;;;;;;;;;;;;8.59;71.37;101261.91;107485;1253;112026;-62
2023/03/22 06:54:49;;;;;;;;;;;;;;;8.70;71.32;101264.01;107635;1254;109973;-61
2023/03/22 06:57:17;;;;;;;;;;;;;;;8.80;71.39;101267.35;107496;1253;108469;-63
2023/03/22 06:59:45;;;;;;;;;;;;;;;8.85;71.07;101269.54;107622;1254;97807;-64
2023/03/22 07:02:14;;;;;;;;;;;;;;;8.91;70.79;101265.70;107533;1254;97910;-64
2023/03/22 07:04:55;;;;;;;;;;;;;;;9.04;70.77;101258.65;107522;1254;111904;-61
2023/03/22 07:07:25;;;;;;;;;;;;;;;9.18;70.48;101259.96;107577;1253;110726;-63
2023/03/22 07:09:53;;;;;;;;;;;;;;;9.32;70.31;101262.60;107597;1252;107298;-61
2023/03/22 07:12:21;;;;;;;;;;;;;;;9.53;70.11;101262.33;107594;1254;97822;-63
2023/03/22 07:14:50;;;;;;;;;;;;;;;9.66;69.44;101262.52;107520;1254;97996;-63
2023/03/22 07:17:39;;;;;;;;;;;;;;;9.80;69.09;101265.85;107593;1256;112177;-61
2023/03/22 07:20:08;;;;;;;;;;;;;;;9.82;68.57;101268.85;107488;1254;109864;-61
2023/03/22 07:22:37;;;;;;;;;;;;;;;9.89;68.42;101266.75;107627;1254;109600;-61
2023/03/22 07:25:05;;;;;;;;;;;;;;;9.97;68.32;101266.29;107488;1254;97838;-62
2023/03/22 07:27:34;;;;;;;;;;;;;;;10.05;68.20;101264.80;107583;1252;97932;-63
2023/03/22 07:30:03;;;;;;;;;;;;;;;10.04;67.70;101265.94;107612;1252;112078;-62
2023/03/22 07:32:34;;;;;;;;;;;;;;;10.08;67.67;101264.73;107474;1258;109100;-61
2023/03/22 07:35:06;;;;;;;;;;;;;;;10.08;67.68;101265.80;107448;1253;107911;-62
2023/03/22 07:37:34;;;;;;;;;;;;;;;10.06;67.48;101261.30;107615;1253;97841;-61
2023/03/22 07:40:05;;;;;;;;;;;;;;;10.00;67.72;101262.63;107610;1254;97816;-62
2023/03/22 07:42:34;;;;;;;;;;;;;;;9.99;67.65;101258.77;107655;1254;112087;-63
2023/03/22 07:45:21;;;;;;;;;;;;;;;10.01;67.65;101258.95;107475;1252;109782;-61
2023/03/22 07:47:49;;;;;;;;;;;;;;;10.08;67.59;101256.29;107641;1253;108651;-62
2023/03/22 07:50:18;;;;;;;;;;;;;;;10.12;67.86;101258.67;107509;1252;97739;-62
2023/03/22 07:52:50;;;;;;;;;;;;;;;10.13;67.74;101257.85;107653;1254;97752;-62
2023/03/22 07:55:18;;;;;;;;;;;;;;;10.18;67.88;101257.99;107657;1254;110374;-62
2023/03/22 07:57:46;;;;;;;;;;;;;;;10.25;67.84;101263.20;107652;1254;109190;-62
2023/03/22 08:00:16;;;;;;;;;;;;;;;10.38;67.63;101256.42;107663;1254;108186;-61
2023/03/22 08:02:47;;;;;;;;;;;;;;;10.57;67.52;101254.80;107600;1254;97811;-61
2023/03/22 08:05:38;;;;;;;;;;;;;;;10.76;67.11;101255.89;107612;1252;97706;-62
2023/03/22 08:08:06;;;;;;;;;;;;;;;10.87;66.69;101248.42;107687;1252;110898;-62
2023/03/22 08:10:35;;;;;;;;;;;;;;;10.91;66.25;101253.59;107682;1254;110133;-62
2023/03/22 08:13:04;;;;;;;;;;;;;;;10.97;66.25;101248.27;107604;1254;107654;-61
2023/03/22 08:15:32;;;;;;;;;;;;;;;11.15;66.23;101248.78;107727;1254;97917;-63
2023/03/22 08:18:01;;;;;;;;;;;;;;;11.32;65.98;101245.89;107612;1254;97874;-62
2023/03/22 08:20:36;;;;;;;;;;;;;;;11.51;65.76;101240.34;107660;1254;111362;-62
2023/03/22 08:23:14;;;;;;;;;;;;;;;11.69;65.47;101231.70;107651;1254;109307;-62
2023/03/22 08:25:57;;;;;;;;;;;;;;;11.89;65.21;101231.21;107670;1253;108342;-65
2023/03/22 08:28:26;;;;;;;;;;;;;;;12.10;65.05;101233.05;107669;1254;97873;-63
2023/03/22 08:30:55;;;;;;;;;;;;;;;12.30;64.57;101227.71;107642;1254;97836;-62
2023/03/22 08:33:25;;;;;;;;;;;;;;;12.48;63.90;101230.92;107583;1254;111528;-62
2023/03/22 08:36:05;;;;;;;;;;;;;;;12.66;63.14;101231.31;107626;1252;109296;-62
2023/03/22 08:38:37;;;;;;;;;;;;;;;12.85;62.91;101228.77;107601;1254;107719;-62
2023/03/22 08:41:06;;;;;;;;;;;;;;;13.04;62.15;101229.71;107555;1253;97845;-61
2023/03/22 08:43:34;;;;;;;;;;;;;;;13.22;61.47;101231.16;107633;1254;97858;-63
2023/03/22 08:46:04;;;;;;;;;;;;;;;13.37;60.88;101227.43;107620;1253;111228;-63
2023/03/22 08:48:34;;;;;;;;;;;;;;;13.49;60.08;101230.41;107655;1252;109054;-62
2023/03/22 08:51:07;;;;;;;;;;;;;;;13.68;59.94;101229.54;107616;1254;109322;-62
2023/03/22 08:53:50;;;;;;;;;;;;;;;13.94;59.78;101228.55;107425;1254;97822;-63
2023/03/22 08:56:58;;;;;;;;;;;;;;;14.23;58.82;101226.48;107164;1257;97825;-63
2023/03/22 08:59:43;;;;;;;;;;;;;;;14.53;58.47;101225.42;107092;1257;111127;-62
2023/03/22 09:02:35;;;;;;;;;;;;;;;14.83;56.53;101228.23;107539;1254;108311;-63
2023/03/22 09:05:04;;;;;;;;;;;;;;;15.07;56.19;101226.77;107645;1256;106816;-63
2023/03/22 09:07:32;;;;;;;;;;;;;;;15.34;56.67;101226.11;107593;1254;97809;-62
2023/03/22 09:10:08;;;;;;;;;;;;;;;15.65;55.89;101225.63;107619;1253;97806;-63
2023/03/22 09:12:37;;;;;;;;;;;;;;;15.94;55.71;101219.10;107636;1253;111904;-62
2023/03/22 09:15:06;;;;;;;;;;;;;;;16.21;54.88;101219.31;107682;1253;109168;-62
2023/03/22 09:17:40;;;;;;;;;;;;;;;16.54;54.39;101212.59;107638;1254;108805;-63
2023/03/22 09:20:09;;;;;;;;;;;;;;;16.86;53.37;101213.66;107687;1254;97995;-62
2023/03/22 09:22:42;;;;;;;;;;;;;;;17.12;49.47;101206.25;107688;1253;97803;-62
2023/03/22 09:25:13;;;;;;;;;;;;;;;17.30;50.22;101208.23;107650;1254;111599;-62
2023/03/22 09:27:43;;;;;;;;;;;;;;;17.59;49.58;101211.67;107607;1258;109300;-62
2023/03/22 09:30:11;;;;;;;;;;;;;;;18.01;48.67;101208.30;107674;1253;108040;-63
2023/03/22 09:32:40;;;;;;;;;;;;;;;18.48;48.38;101205.17;107675;1252;97815;-63
2023/03/22 09:35:10;;;;;;;;;;;;;;;19.02;47.47;101205.07;107640;1253;97706;-62
2023/03/22 09:37:44;;;;;;;;;;;;;;;19.61;47.36;101200.67;107669;1253;111871;-63
2023/03/22 09:40:14;;;;;;;;;;;;;;;20.22;46.01;101199.36;107631;1254;110091;-62
2023/03/22 09:42:45;;;;;;;;;;;;;;;20.69;44.55;101194.80;107601;1254;108371;-63
2023/03/22 09:45:36;;;;;;;;;;;;;;;21.11;43.47;101196.77;107623;1254;97932;-62
2023/03/22 09:48:25;;;;;;;;;;;;;;;21.58;41.27;101193.94;107703;1256;98475;-63
2023/03/22 09:50:54;;;;;;;;;;;;;;;22.10;42.46;101190.91;107607;1253;112129;-62
2023/03/22 09:53:23;;;;;;;;;;;;;;;22.57;40.45;101190.42;107662;1254;110680;-62
2023/03/22 09:56:16;;;;;;;;;;;;;;;22.93;39.24;101186.08;107664;1254;107933;-64
2023/03/22 09:59:06;;;;;;;;;;;;;;;23.14;38.12;101187.25;107670;1254;98508;-63
2023/03/22 10:01:54;;;;;;;;;;;;;;;23.29;37.25;101183.16;107699;1252;97857;-64
2023/03/22 10:04:25;;;;;;;;;;;;;;;23.50;37.48;101179.72;107242;1254;543069;-64
2023/03/22 10:07:12;;;;;;;;;;;;;;;23.68;37.84;101179.38;107653;1254;109219;-63
2023/03/22 10:09:46;;;;;;;;;;;;;;;24.06;36.19;101179.17;107674;1254;107956;-62
2023/03/22 10:12:26;;;;;;;;;;;;;;;24.23;35.67;101171.85;107696;1254;97909;-63
2023/03/22 10:15:24;;;;;;;;;;;;;;;24.61;35.87;101169.23;107670;1254;97806;-63
2023/03/22 10:17:54;;;;;;;;;;;;;;;24.89;34.63;101170.09;107513;1254;111896;-64
2023/03/22 10:20:43;;;;;;;;;;;;;;;25.10;33.63;101166.97;107723;1254;109478;-65
2023/03/22 10:23:14;;;;;;;;;;;;;;;25.48;33.76;101164.94;107653;1256;107775;-64
2023/03/22 10:25:43;;;;;;;;;;;;;;;25.93;33.59;101164.69;107663;1254;97806;-63
2023/03/22 10:28:15;;;;;;;;;;;;;;;26.29;32.89;101162.21;107598;1254;97701;-64
2023/03/22 10:30:45;;;;;;;;;;;;;;;26.54;32.03;101161.25;107664;1255;111302;-64
2023/03/22 10:33:18;;;;;;;;;;;;;;;26.74;31.16;101160.92;107695;1253;110008;-64
2023/03/22 10:35:47;;;;;;;;;;;;;;;26.78;30.42;101161.17;107670;1253;108234;-63
2023/03/22 10:38:22;;;;;;;;;;;;;;;26.92;31.14;101157.03;107658;1256;97713;-63
2023/03/22 10:40:52;;;;;;;;;;;;;;;27.09;30.02;101156.59;107621;1254;97848;-64
2023/03/22 10:43:39;;;;;;;;;;;;;;;27.26;30.24;101158.16;107683;1255;111921;-62
2023/03/22 10:46:13;;;;;;;;;;;;;;;27.41;30.08;101151.30;107650;1254;109270;-62
2023/03/22 10:48:44;;;;;;;;;;;;;;;27.29;29.15;101152.84;107712;1254;108527;-63
2023/03/22 10:51:31;;;;;;;;;;;;;;;27.09;28.97;101146.77;107675;1254;97882;-64
2023/03/22 10:54:01;;;;;;;;;;;;;;;27.20;29.32;101143.15;107645;1254;97697;-62
2023/03/22 10:56:30;;;;;;;;;;;;;;;27.42;29.50;101135.02;107651;1254;112423;-63
2023/03/22 10:58:58;;;;;;;;;;;;;;;27.62;28.93;101130.91;107696;1256;110155;-63
2023/03/22 11:01:32;;;;;;;;;;;;;;;27.85;28.89;101128.86;107633;1254;108683;-61
2023/03/22 11:04:07;;;;;;;;;;;;;;;28.00;27.91;101130.96;107706;1254;97841;-61
2023/03/22 11:06:40;;;;;;;;;;;;;;;27.83;27.68;101128.16;107644;1256;97889;-62
2023/03/22 11:09:26;;;;;;;;;;;;;;;27.87;27.98;101122.95;107730;1254;112441;-61
2023/03/22 11:11:55;;;;;;;;;;;;;;;27.89;28.20;101124.53;107626;1257;109696;-61
2023/03/22 11:14:26;;;;;;;;;;;;;;;28.14;28.34;101120.03;107649;1252;108421;-61
2023/03/22 11:16:58;;;;;;;;;;;;;;;28.24;27.20;101118.96;107672;1254;98239;-62
2023/03/22 11:19:28;;;;;;;;;;;;;;;28.35;27.34;101117.57;107652;1254;97856;-63
2023/03/22 11:21:57;;;;;;;;;;;;;;;28.35;26.76;101112.59;107657;1255;111414;-62
2023/03/22 11:24:26;;;;;;;;;;;;;;;28.36;27.06;101111.77;107689;1253;109658;-62
2023/03/22 11:27:02;;;;;;;;;;;;;;;28.43;27.47;101113.18;107659;1254;108316;-62
2023/03/22 11:29:42;;;;;;;;;;;;;;;28.21;27.80;101109.38;107649;1254;97816;-63
2023/03/22 11:32:27;;;;;;;;;;;;;;;27.89;27.81;101111.04;107688;1254;97894;-62
2023/03/22 11:35:00;;;;;;;;;;;;;;;27.51;27.60;101107.30;107714;1254;111822;-61
2023/03/22 11:37:28;;;;;;;;;;;;;;;27.41;28.08;101104.10;107723;1254;109356;-62
2023/03/22 11:39:58;;;;;;;;;;;;;;;27.32;28.14;101101.85;107619;1253;110256;-61
2023/03/22 11:42:27;;;;;;;;;;;;;;;27.08;28.26;101100.57;107744;1256;97802;-62
2023/03/22 11:44:56;;;;;;;;;;;;;;;26.77;28.40;101096.14;107683;1256;97713;-62
2023/03/22 11:47:27;;;;;;;;;;;;;;;26.28;28.42;101098.15;107697;1254;112260;-63
2023/03/22 11:49:56;;;;;;;;;;;;;;;25.78;28.83;101096.35;107598;1253;109235;-63
2023/03/22 11:52:26;;;;;;;;;;;;;;;25.49;29.13;101092.38;107580;1256;107917;-63
2023/03/22 11:54:58;;;;;;;;;;;;;;;25.47;29.62;101091.11;107612;1259;97729;-62
2023/03/22 11:57:28;;;;;;;;;;;;;;;25.44;29.40;101090.65;107606;1258;97835;-62
2023/03/22 12:00:00;;;;;;;;;;;;;;;24.98;29.42;101089.02;107655;1255;111616;-62
2023/03/22 12:02:34;;;;;;;;;;;;;;;24.71;30.00;101088.69;107660;1254;110051;-63
2023/03/22 12:05:08;;;;;;;;;;;;;;;24.48;29.80;101084.33;107643;1256;107900;-63
2023/03/22 12:07:37;;;;;;;;;;;;;;;24.08;29.92;101082.85;107650;1254;97813;-62
2023/03/22 12:10:17;;;;;;;;;;;;;;;23.59;30.78;101082.73;107633;1254;97815;-63
2023/03/22 12:12:56;;;;;;;;;;;;;;;23.25;31.42;101080.95;107681;1254;112953;-63
2023/03/22 12:15:32;;;;;;;;;;;;;;;22.95;31.84;101077.58;107664;1255;109762;-62
2023/03/22 12:18:00;;;;;;;;;;;;;;;22.78;32.00;101075.64;107634;1254;108399;-62
2023/03/22 12:20:40;;;;;;;;;;;;;;;22.61;32.17;101069.76;107652;1254;97791;-63
2023/03/22 12:23:14;;;;;;;;;;;;;;;22.62;32.06;101069.42;107691;1254;97807;-62
2023/03/22 12:25:49;;;;;;;;;;;;;;;23.12;32.06;101071.68;107562;1254;111833;-63
2023/03/22 12:28:20;;;;;;;;;;;;;;;23.81;31.51;101071.23;107619;1254;109685;-62
2023/03/22 12:30:51;;;;;;;;;;;;;;;24.37;30.40;101069.04;107626;1254;109299;-61
2023/03/22 12:33:28;;;;;;;;;;;;;;;24.87;29.91;101064.98;107620;1254;97807;-62
2023/03/22 12:36:04;;;;;;;;;;;;;;;25.13;29.66;101057.85;107606;1254;97844;-61
2023/03/22 12:38:48;;;;;;;;;;;;;;;25.09;29.53;101058.87;107655;1254;112152;-62
2023/03/22 12:41:34;;;;;;;;;;;;;;;25.56;29.11;101061.70;107613;1254;109337;-62
2023/03/22 12:44:09;;;;;;;;;;;;;;;26.05;28.65;101061.09;107684;1254;106992;-62
2023/03/22 12:46:45;;;;;;;;;;;;;;;26.43;28.07;101057.00;107665;1254;97899;-62
2023/03/22 12:49:33;;;;;;;;;;;;;;;26.83;27.38;101051.33;107619;1254;97812;-63
2023/03/22 12:52:14;;;;;;;;;;;;;;;26.99;26.99;101050.34;107619;1254;112371;-63
2023/03/22 12:54:43;;;;;;;;;;;;;;;27.16;26.63;101049.45;107681;1254;110820;-66
2023/03/22 12:57:13;;;;;;;;;;;;;;;27.44;26.80;101049.71;107649;1255;108908;-63
2023/03/22 12:59:44;;;;;;;;;;;;;;;27.76;26.29;101041.38;107583;1254;97883;-60